Time;durP1;ratioP1;P1;durP2;ratioP2;P2;SDS_P1;SDS_P2;PMS_P1;PMS_P2;Temp;Humidity;BMP_temperature;BMP_pressure;BME280_temperature;BME280_humidity;BME280_pressure;Samples;Min_cycle;Max_cycle;Signal;HPM_P1;HPM_P2
2021/12/30 00:00:14;;;;;;;8.70;6.20;;;;;;;;;;5073439;28;20447;-71
2021/12/30 00:02:41;;;;;;;8.10;6.17;;;;;;;;;;5073345;28;20458;-71
2021/12/30 00:05:09;;;;;;;7.70;5.97;;;;;;;;;;5072921;28;20483;-71
2021/12/30 00:07:37;;;;;;;7.40;5.50;;;;;;;;;;5073311;28;20447;-71
2021/12/30 00:10:05;;;;;;;7.33;6.10;;;;;;;;;;5073267;28;20456;-71
2021/12/30 00:12:32;;;;;;;6.93;5.83;;;;;;;;;;5073326;28;20451;-71
2021/12/30 00:15:01;;;;;;;7.43;5.57;;;;;;;;;;5072858;28;20476;-71
2021/12/30 00:17:28;;;;;;;7.50;5.40;;;;;;;;;;5072942;28;20458;-71
2021/12/30 00:19:55;;;;;;;6.77;5.67;;;;;;;;;;5073470;28;20447;-71
2021/12/30 00:22:23;;;;;;;6.27;5.03;;;;;;;;;;5073123;28;20444;-71
2021/12/30 00:24:50;;;;;;;6.73;5.00;;;;;;;;;;5072592;28;20476;-71
2021/12/30 00:27:17;;;;;;;6.10;4.83;;;;;;;;;;5073151;28;20943;-71
2021/12/30 00:29:44;;;;;;;5.97;4.80;;;;;;;;;;5072686;28;20463;-71
2021/12/30 00:32:13;;;;;;;4.93;4.43;;;;;;;;;;5073031;28;20828;-71
2021/12/30 00:34:40;;;;;;;5.70;4.17;;;;;;;;;;5072767;28;20472;-71
2021/12/30 00:37:07;;;;;;;4.67;4.13;;;;;;;;;;5072995;28;20455;-71
2021/12/30 00:39:34;;;;;;;5.50;4.17;;;;;;;;;;5072753;28;21007;-71
2021/12/30 00:42:01;;;;;;;7.60;5.10;;;;;;;;;;5072944;28;20451;-71
2021/12/30 00:44:28;;;;;;;6.03;4.73;;;;;;;;;;5072565;28;20973;-71
2021/12/30 00:46:57;;;;;;;5.77;4.50;;;;;;;;;;5072963;28;20458;-71
2021/12/30 00:49:25;;;;;;;7.20;5.00;;;;;;;;;;5073193;28;20452;-71
2021/12/30 00:51:53;;;;;;;9.67;4.90;;;;;;;;;;5073139;28;20454;-71
2021/12/30 00:54:20;;;;;;;5.87;4.50;;;;;;;;;;5072533;28;20945;-71
2021/12/30 00:56:47;;;;;;;5.57;4.20;;;;;;;;;;5072930;28;20451;-71
2021/12/30 00:59:14;;;;;;;5.97;5.13;;;;;;;;;;5076195;28;20490;-71
2021/12/30 01:01:41;;;;;;;5.40;4.73;;;;;;;;;;5077002;28;20463;-71
2021/12/30 01:04:08;;;;;;;7.23;4.93;;;;;;;;;;5076278;28;20448;-71
2021/12/30 01:06:37;;;;;;;6.43;4.87;;;;;;;;;;5076590;28;20470;-71
2021/12/30 01:09:05;;;;;;;7.60;5.33;;;;;;;;;;5076890;28;20809;-71
2021/12/30 01:11:32;;;;;;;7.37;5.47;;;;;;;;;;5076398;28;20458;-71
2021/12/30 01:14:03;;;;;;;6.83;5.53;;;;;;;;;;5076443;28;20462;-71
2021/12/30 01:16:35;;;;;;;6.73;5.53;;;;;;;;;;5076499;28;20467;-71
2021/12/30 01:19:15;;;;;;;9.70;5.80;;;;;;;;;;5076423;28;20479;-71
2021/12/30 01:21:44;;;;;;;6.73;5.13;;;;;;;;;;5076403;28;20479;-71
2021/12/30 01:24:11;;;;;;;7.07;5.33;;;;;;;;;;5076105;28;20447;-71
2021/12/30 01:26:38;;;;;;;7.47;5.97;;;;;;;;;;5076035;28;20462;-71
2021/12/30 01:29:05;;;;;;;7.10;5.00;;;;;;;;;;5075791;28;20459;-71
2021/12/30 01:31:32;;;;;;;7.57;5.27;;;;;;;;;;5076176;28;20825;-71
2021/12/30 01:34:00;;;;;;;7.37;5.37;;;;;;;;;;5075999;28;20451;-71
2021/12/30 01:36:27;;;;;;;7.80;5.30;;;;;;;;;;5075949;28;20470;-71
2021/12/30 01:38:56;;;;;;;7.00;5.00;;;;;;;;;;5075980;28;20479;-71
2021/12/30 01:41:23;;;;;;;8.13;6.23;;;;;;;;;;5075847;28;20451;-71
2021/12/30 01:43:51;;;;;;;8.93;5.23;;;;;;;;;;5076015;28;20447;-71
2021/12/30 01:46:18;;;;;;;7.70;5.70;;;;;;;;;;5076032;28;20468;-71
2021/12/30 01:48:45;;;;;;;10.37;5.70;;;;;;;;;;5075771;28;20451;-71
2021/12/30 01:51:12;;;;;;;8.47;6.23;;;;;;;;;;5075982;28;20452;-71
2021/12/30 01:53:39;;;;;;;8.57;5.30;;;;;;;;;;5075551;28;20448;-71
2021/12/30 01:56:08;;;;;;;6.80;4.90;;;;;;;;;;5075564;28;20487;-71
2021/12/30 01:58:36;;;;;;;7.93;5.33;;;;;;;;;;5075647;28;20561;-71
2021/12/30 02:01:04;;;;;;;6.57;4.93;;;;;;;;;;5075876;28;20486;-71
2021/12/30 02:03:31;;;;;;;4.20;3.50;;;;;;;;;;5075406;28;20452;-71
2021/12/30 02:05:58;;;;;;;7.37;4.20;;;;;;;;;;5075474;28;20482;-71
2021/12/30 02:08:25;;;;;;;5.77;4.23;;;;;;;;;;5075564;28;20925;-71
2021/12/30 02:10:52;;;;;;;5.87;3.03;;;;;;;;;;5074949;28;20458;-71
2021/12/30 02:13:21;;;;;;;3.50;2.97;;;;;;;;;;5075523;28;20452;-71
2021/12/30 02:15:49;;;;;;;4.20;2.87;;;;;;;;;;5075126;28;20479;-71
2021/12/30 02:18:16;;;;;;;3.27;2.53;;;;;;;;;;5075254;28;20941;-71
2021/12/30 02:20:52;;;;;;;3.50;3.20;;;;;;;;;;5075254;28;20456;-71
2021/12/30 02:23:20;;;;;;;3.27;2.60;;;;;;;;;;5075483;28;20955;-71
2021/12/30 02:25:48;;;;;;;3.83;2.33;;;;;;;;;;5074715;28;20467;-71
2021/12/30 02:28:16;;;;;;;4.10;2.43;;;;;;;;;;5074777;28;20949;-71
2021/12/30 02:30:44;;;;;;;3.23;1.90;;;;;;;;;;5075099;28;20452;-71
2021/12/30 02:33:12;;;;;;;3.10;2.67;;;;;;;;;;5075302;28;20455;-71
2021/12/30 02:35:39;;;;;;;2.40;1.73;;;;;;;;;;5074715;28;20479;-71
2021/12/30 02:38:08;;;;;;;2.40;1.80;;;;;;;;;;5075110;28;20456;-71
2021/12/30 02:40:36;;;;;;;1.80;1.70;;;;;;;;;;5074750;28;20444;-71
2021/12/30 02:43:05;;;;;;;3.00;1.90;;;;;;;;;;5074983;28;20444;-71
2021/12/30 02:45:32;;;;;;;2.10;1.60;;;;;;;;;;5074729;28;20475;-71
2021/12/30 02:47:59;;;;;;;3.30;2.00;;;;;;;;;;5074957;28;20822;-71
2021/12/30 02:50:27;;;;;;;2.27;1.87;;;;;;;;;;5074616;28;20444;-71
2021/12/30 02:52:54;;;;;;;2.60;1.90;;;;;;;;;;5074656;28;20451;-71
2021/12/30 02:55:22;;;;;;;1.70;1.53;;;;;;;;;;5074330;28;20835;-71
2021/12/30 02:57:49;;;;;;;2.20;1.83;;;;;;;;;;5074417;28;20448;-71
2021/12/30 03:00:16;;;;;;;2.53;1.97;;;;;;;;;;5074405;28;20498;-71
2021/12/30 03:02:44;;;;;;;2.40;2.03;;;;;;;;;;5074440;28;20456;-71
2021/12/30 03:05:15;;;;;;;2.33;1.90;;;;;;;;;;5074097;28;20499;-71
2021/12/30 03:07:42;;;;;;;1.67;1.43;;;;;;;;;;5074146;28;20921;-71
2021/12/30 03:10:14;;;;;;;2.30;2.10;;;;;;;;;;5074228;28;20450;-71
2021/12/30 03:12:43;;;;;;;2.07;1.60;;;;;;;;;;5074064;28;20474;-71
2021/12/30 03:15:12;;;;;;;1.83;1.30;;;;;;;;;;5074229;28;20471;-71
2021/12/30 03:17:39;;;;;;;2.07;1.30;;;;;;;;;;5074289;28;20455;-71
2021/12/30 03:20:09;;;;;;;2.73;1.60;;;;;;;;;;5073944;28;20537;-71
2021/12/30 03:22:36;;;;;;;1.77;1.43;;;;;;;;;;5072950;28;20474;-71
2021/12/30 03:25:03;;;;;;;2.00;1.63;;;;;;;;;;5073095;28;20463;-71
2021/12/30 03:27:31;;;;;;;1.70;1.50;;;;;;;;;;5074083;28;20463;-71
2021/12/30 03:29:59;;;;;;;1.40;1.10;;;;;;;;;;5073837;28;20464;-71
2021/12/30 03:32:26;;;;;;;2.07;1.57;;;;;;;;;;5073875;28;20447;-71
2021/12/30 03:34:53;;;;;;;1.60;1.30;;;;;;;;;;5073650;28;20841;-71
2021/12/30 03:37:21;;;;;;;3.10;2.33;;;;;;;;;;5073839;28;20443;-71
2021/12/30 03:39:48;;;;;;;1.70;1.40;;;;;;;;;;5073768;28;20491;-71
2021/12/30 03:42:16;;;;;;;1.90;1.47;;;;;;;;;;5073700;28;20448;-71
2021/12/30 03:44:44;;;;;;;1.83;1.50;;;;;;;;;;5073499;28;20525;-71
2021/12/30 03:47:16;;;;;;;2.10;1.70;;;;;;;;;;5073701;28;20952;-71
2021/12/30 03:49:44;;;;;;;1.50;1.23;;;;;;;;;;5073578;28;20452;-71
2021/12/30 03:52:14;;;;;;;2.47;1.57;;;;;;;;;;5073438;28;20506;-71
2021/12/30 03:54:42;;;;;;;1.43;1.13;;;;;;;;;;5073257;28;20847;-71
2021/12/30 03:57:09;;;;;;;1.60;1.37;;;;;;;;;;5073488;28;20448;-71
2021/12/30 03:59:36;;;;;;;4.43;2.70;;;;;;;;;;5073231;28;21015;-71
2021/12/30 04:02:04;;;;;;;1.70;1.50;;;;;;;;;;5073354;28;20459;-71
2021/12/30 04:04:32;;;;;;;1.87;1.37;;;;;;;;;;5072867;28;20475;-72
2021/12/30 04:06:59;;;;;;;2.70;1.30;;;;;;;;;;5073415;28;20940;-71
2021/12/30 04:09:27;;;;;;;2.00;1.10;;;;;;;;;;5073109;28;20455;-71
2021/12/30 04:11:54;;;;;;;1.73;1.63;;;;;;;;;;5073250;28;20455;-71
2021/12/30 04:14:21;;;;;;;1.93;1.30;;;;;;;;;;5072858;28;20448;-71
2021/12/30 04:16:48;;;;;;;1.80;1.30;;;;;;;;;;5073184;28;20459;-71
2021/12/30 04:19:15;;;;;;;1.70;1.20;;;;;;;;;;5072982;28;20507;-71
2021/12/30 04:21:44;;;;;;;1.80;1.30;;;;;;;;;;5073070;28;20452;-71
2021/12/30 04:24:11;;;;;;;5.43;3.60;;;;;;;;;;5072865;28;20554;-71
2021/12/30 04:26:38;;;;;;;1.83;1.40;;;;;;;;;;5072444;28;20455;-71
2021/12/30 04:29:06;;;;;;;1.50;1.13;;;;;;;;;;5072979;28;20459;-71
2021/12/30 04:31:33;;;;;;;4.33;1.53;;;;;;;;;;5073096;28;20959;-71
2021/12/30 04:34:00;;;;;;;1.50;1.10;;;;;;;;;;5072514;28;20478;-71
2021/12/30 04:36:28;;;;;;;1.43;1.17;;;;;;;;;;5072944;28;20479;-71
2021/12/30 04:38:56;;;;;;;1.50;1.27;;;;;;;;;;5072845;28;20462;-71
2021/12/30 04:41:23;;;;;;;1.57;1.10;;;;;;;;;;5073001;28;20450;-71
2021/12/30 04:43:50;;;;;;;1.30;0.90;;;;;;;;;;5072630;28;20452;-71
2021/12/30 04:46:17;;;;;;;1.47;1.17;;;;;;;;;;5073048;28;20824;-71
2021/12/30 04:48:44;;;;;;;3.50;1.43;;;;;;;;;;5072804;28;20448;-71
2021/12/30 04:51:13;;;;;;;2.03;1.20;;;;;;;;;;5072948;28;20444;-71
2021/12/30 04:53:40;;;;;;;1.40;1.00;;;;;;;;;;5072727;28;20974;-71
2021/12/30 04:56:08;;;;;;;2.50;1.80;;;;;;;;;;5072708;28;20855;-71
2021/12/30 04:58:35;;;;;;;1.53;1.20;;;;;;;;;;5072718;28;20459;-71
2021/12/30 05:01:03;;;;;;;1.43;1.10;;;;;;;;;;5072681;28;20996;-71
2021/12/30 05:03:30;;;;;;;2.30;1.70;;;;;;;;;;5072534;28;20448;-71
2021/12/30 05:05:58;;;;;;;1.70;1.17;;;;;;;;;;5072605;28;20468;-71
2021/12/30 05:08:26;;;;;;;1.33;0.93;;;;;;;;;;5073221;28;20447;-71
2021/12/30 05:10:53;;;;;;;1.60;1.20;;;;;;;;;;5072678;28;20448;-71
2021/12/30 05:13:22;;;;;;;2.07;1.30;;;;;;;;;;5072390;28;20470;-71
2021/12/30 05:15:49;;;;;;;3.03;1.30;;;;;;;;;;5072139;28;20827;-71
2021/12/30 05:18:18;;;;;;;3.10;1.40;;;;;;;;;;5072486;28;20483;-71
2021/12/30 05:20:46;;;;;;;1.60;1.20;;;;;;;;;;5072593;28;20490;-71
2021/12/30 05:23:13;;;;;;;1.50;1.37;;;;;;;;;;5072526;28;20827;-71
2021/12/30 05:25:40;;;;;;;1.73;1.30;;;;;;;;;;5071635;28;20822;-71
2021/12/30 05:28:07;;;;;;;1.97;1.30;;;;;;;;;;5072292;28;20455;-71
2021/12/30 05:30:36;;;;;;;3.63;1.57;;;;;;;;;;5072165;28;20468;-71
2021/12/30 05:33:03;;;;;;;2.33;1.20;;;;;;;;;;5072361;28;20453;-71
2021/12/30 05:35:31;;;;;;;2.67;1.50;;;;;;;;;;5071859;28;20471;-71
2021/12/30 05:38:00;;;;;;;2.10;1.30;;;;;;;;;;5072311;28;20470;-71
2021/12/30 05:40:27;;;;;;;2.10;1.33;;;;;;;;;;5071970;28;20487;-71
2021/12/30 05:42:54;;;;;;;1.70;1.30;;;;;;;;;;5072257;28;20447;-71
2021/12/30 05:45:21;;;;;;;1.60;1.20;;;;;;;;;;5073952;28;20929;-71
2021/12/30 05:47:52;;;;;;;2.17;1.57;;;;;;;;;;5075899;28;20451;-71
2021/12/30 05:50:20;;;;;;;3.73;1.30;;;;;;;;;;5075772;28;20444;-71
2021/12/30 05:52:47;;;;;;;2.83;1.30;;;;;;;;;;5075870;28;20447;-71
2021/12/30 05:55:15;;;;;;;6.77;3.00;;;;;;;;;;5075501;28;20521;-71
2021/12/30 05:57:42;;;;;;;2.07;1.67;;;;;;;;;;5075561;28;20460;-71
2021/12/30 06:00:11;;;;;;;3.17;1.40;;;;;;;;;;5075733;28;20491;-71
2021/12/30 06:02:38;;;;;;;2.23;1.60;;;;;;;;;;5075548;28;20459;-71
2021/12/30 06:05:07;;;;;;;2.83;1.87;;;;;;;;;;5075167;28;20471;-71
2021/12/30 06:07:34;;;;;;;2.97;2.67;;;;;;;;;;5075338;28;20451;-71
2021/12/30 06:10:01;;;;;;;4.90;2.50;;;;;;;;;;5075474;28;20454;-71
2021/12/30 06:12:28;;;;;;;2.90;1.80;;;;;;;;;;5075470;28;20459;-72
2021/12/30 06:14:55;;;;;;;2.57;1.40;;;;;;;;;;5075258;28;20995;-71
2021/12/30 06:17:23;;;;;;;2.60;1.70;;;;;;;;;;5075445;28;20448;-71
2021/12/30 06:19:50;;;;;;;2.90;1.50;;;;;;;;;;5075306;28;20491;-71
2021/12/30 06:22:18;;;;;;;6.17;1.70;;;;;;;;;;5075451;28;20458;-71
2021/12/30 06:24:45;;;;;;;3.67;2.57;;;;;;;;;;5074471;28;20479;-71
2021/12/30 06:27:12;;;;;;;4.80;2.93;;;;;;;;;;5075331;28;20814;-71
2021/12/30 06:29:40;;;;;;;2.20;1.53;;;;;;;;;;5074989;28;20940;-71
2021/12/30 06:32:07;;;;;;;1.97;1.40;;;;;;;;;;5075137;28;20448;-71
2021/12/30 06:34:35;;;;;;;2.47;1.40;;;;;;;;;;5074656;28;20476;-71
2021/12/30 06:37:02;;;;;;;1.67;1.50;;;;;;;;;;5075046;28;20447;-71
2021/12/30 06:39:31;;;;;;;2.33;1.50;;;;;;;;;;5074916;28;20459;-71
2021/12/30 06:41:58;;;;;;;1.80;1.30;;;;;;;;;;5074724;28;20455;-71
2021/12/30 06:44:25;;;;;;;3.50;1.67;;;;;;;;;;5074546;28;20479;-71
2021/12/30 06:46:57;;;;;;;2.17;1.60;;;;;;;;;;5074821;28;20444;-71
2021/12/30 06:49:24;;;;;;;6.33;1.80;;;;;;;;;;5074898;28;20488;-71
2021/12/30 06:51:51;;;;;;;2.30;2.10;;;;;;;;;;5074735;28;20450;-71
2021/12/30 06:54:18;;;;;;;5.40;3.27;;;;;;;;;;5074386;28;20448;-71
2021/12/30 06:56:47;;;;;;;5.63;4.53;;;;;;;;;;5074434;28;20456;-71
2021/12/30 06:59:15;;;;;;;6.23;3.83;;;;;;;;;;5074641;28;20948;-71
2021/12/30 07:01:42;;;;;;;6.10;4.27;;;;;;;;;;5074286;28;20494;-71
2021/12/30 07:04:09;;;;;;;6.47;3.90;;;;;;;;;;5074320;28;20454;-71
2021/12/30 07:06:37;;;;;;;4.33;3.20;;;;;;;;;;5074538;28;20460;-71
2021/12/30 07:09:04;;;;;;;6.37;3.67;;;;;;;;;;5074429;28;20948;-71
2021/12/30 07:11:31;;;;;;;7.10;4.03;;;;;;;;;;5074269;28;20812;-71
2021/12/30 07:14:00;;;;;;;3.37;2.67;;;;;;;;;;5074229;28;20451;-71
2021/12/30 07:16:27;;;;;;;3.30;2.00;;;;;;;;;;5074060;28;21006;-71
2021/12/30 07:18:54;;;;;;;2.97;1.93;;;;;;;;;;5074256;28;20447;-71
2021/12/30 07:21:21;;;;;;;5.40;3.63;;;;;;;;;;5074071;28;21020;-71
2021/12/30 07:23:48;;;;;;;4.93;3.03;;;;;;;;;;5073909;28;20459;-71
2021/12/30 07:26:15;;;;;;;11.90;5.87;;;;;;;;;;5073618;28;20475;-71
2021/12/30 07:28:42;;;;;;;12.67;6.90;;;;;;;;;;5073760;28;20967;-71
2021/12/30 07:31:11;;;;;;;5.70;4.50;;;;;;;;;;5074100;28;20448;-71
2021/12/30 07:33:38;;;;;;;20.70;12.87;;;;;;;;;;5073769;28;20935;-71
2021/12/30 07:36:05;;;;;;;6.30;4.23;;;;;;;;;;5073784;28;20567;-71
2021/12/30 07:38:32;;;;;;;3.70;2.50;;;;;;;;;;5073800;28;20953;-71
2021/12/30 07:41:00;;;;;;;5.70;2.27;;;;;;;;;;5073749;28;20488;-71
2021/12/30 07:43:27;;;;;;;3.87;2.00;;;;;;;;;;5073438;28;20530;-72
2021/12/30 07:45:54;;;;;;;2.20;2.00;;;;;;;;;;5073552;28;20475;-71
2021/12/30 07:48:22;;;;;;;3.00;2.17;;;;;;;;;;5073586;28;20450;-71
2021/12/30 07:50:50;;;;;;;2.30;1.60;;;;;;;;;;5073679;28;20448;-71
2021/12/30 07:53:17;;;;;;;3.57;1.50;;;;;;;;;;5073561;28;20456;-71
2021/12/30 07:55:44;;;;;;;2.20;1.70;;;;;;;;;;5073199;28;20478;-71
2021/12/30 07:58:11;;;;;;;2.40;1.80;;;;;;;;;;5073573;28;20447;-71
2021/12/30 08:00:38;;;;;;;3.03;1.90;;;;;;;;;;5073284;28;20864;-71
2021/12/30 08:03:05;;;;;;;3.93;1.90;;;;;;;;;;5073474;28;20463;-71
2021/12/30 08:05:34;;;;;;;2.37;1.50;;;;;;;;;;5073094;28;20474;-71
2021/12/30 08:08:01;;;;;;;3.33;1.70;;;;;;;;;;5072908;28;20455;-72
2021/12/30 08:10:29;;;;;;;2.60;2.13;;;;;;;;;;5073315;28;20455;-71
2021/12/30 08:12:56;;;;;;;2.40;1.83;;;;;;;;;;5073334;28;20461;-71
2021/12/30 08:15:24;;;;;;;2.40;1.57;;;;;;;;;;5072902;28;20476;-71
2021/12/30 08:17:52;;;;;;;4.00;1.73;;;;;;;;;;5073114;28;20462;-71
2021/12/30 08:20:21;;;;;;;2.20;1.30;;;;;;;;;;5073154;28;20511;-71
2021/12/30 08:22:51;;;;;;;3.53;1.53;;;;;;;;;;5073101;28;20462;-71
2021/12/30 08:25:19;;;;;;;3.10;2.00;;;;;;;;;;5072411;28;20476;-71
2021/12/30 08:27:46;;;;;;;3.40;2.07;;;;;;;;;;5073201;28;20921;-71
2021/12/30 08:30:14;;;;;;;2.50;1.60;;;;;;;;;;5073075;28;20531;-71
2021/12/30 08:32:42;;;;;;;1.93;1.43;;;;;;;;;;5073120;28;20470;-71
2021/12/30 08:35:10;;;;;;;2.90;1.97;;;;;;;;;;5072767;28;20869;-71
2021/12/30 08:37:38;;;;;;;4.83;2.80;;;;;;;;;;5072929;28;20457;-71
2021/12/30 08:40:07;;;;;;;3.77;3.00;;;;;;;;;;5073010;28;20459;-71
2021/12/30 08:42:35;;;;;;;3.70;2.63;;;;;;;;;;5072864;28;20447;-71
2021/12/30 08:45:02;;;;;;;10.20;3.20;;;;;;;;;;5072590;28;20478;-71
2021/12/30 08:47:30;;;;;;;3.33;1.77;;;;;;;;;;5073023;28;20473;-71
2021/12/30 08:49:57;;;;;;;2.10;1.60;;;;;;;;;;5072927;28;20455;-71
2021/12/30 08:52:25;;;;;;;2.40;2.20;;;;;;;;;;5072748;28;20941;-71
2021/12/30 08:54:53;;;;;;;3.53;2.57;;;;;;;;;;5072523;28;20482;-71
2021/12/30 08:57:22;;;;;;;2.07;1.87;;;;;;;;;;5072798;28;20448;-71
2021/12/30 08:59:50;;;;;;;3.30;1.43;;;;;;;;;;5072780;28;20458;-71
2021/12/30 09:02:17;;;;;;;2.37;1.57;;;;;;;;;;5072667;28;20487;-71
2021/12/30 09:04:46;;;;;;;3.03;1.47;;;;;;;;;;5072314;28;20475;-72
2021/12/30 09:07:13;;;;;;;1.60;1.23;;;;;;;;;;5072656;28;20491;-71
2021/12/30 09:09:41;;;;;;;2.67;1.30;;;;;;;;;;5072580;28;20546;-71
2021/12/30 09:12:08;;;;;;;5.30;1.50;;;;;;;;;;5072549;28;20455;-71
2021/12/30 09:14:37;;;;;;;1.80;1.47;;;;;;;;;;5072263;28;20483;-71
2021/12/30 09:17:06;;;;;;;3.27;2.23;;;;;;;;;;5072696;28;20443;-72
2021/12/30 09:19:33;;;;;;;7.20;4.53;;;;;;;;;;5073400;28;20449;-71
2021/12/30 09:22:00;;;;;;;6.40;4.20;;;;;;;;;;5076483;28;20494;-71
2021/12/30 09:24:27;;;;;;;3.00;2.20;;;;;;;;;;5076056;28;20478;-71
2021/12/30 09:26:54;;;;;;;1.90;1.63;;;;;;;;;;5075928;28;20447;-71
2021/12/30 09:29:21;;;;;;;2.33;1.60;;;;;;;;;;5076225;28;20837;-71
2021/12/30 09:31:51;;;;;;;2.03;1.70;;;;;;;;;;5076028;28;20455;-72
2021/12/30 09:34:20;;;;;;;2.00;1.70;;;;;;;;;;5075983;28;20832;-71
2021/12/30 09:36:47;;;;;;;2.30;1.87;;;;;;;;;;5076167;28;20451;-72
2021/12/30 09:39:15;;;;;;;2.80;1.90;;;;;;;;;;5076120;28;20444;-72
2021/12/30 09:41:44;;;;;;;5.80;1.70;;;;;;;;;;5076035;28;20510;-72
2021/12/30 09:44:11;;;;;;;2.40;1.80;;;;;;;;;;5075781;28;20456;-72
2021/12/30 09:46:39;;;;;;;2.27;2.07;;;;;;;;;;5075836;28;20458;-72
2021/12/30 09:49:08;;;;;;;2.60;2.00;;;;;;;;;;5076042;28;20463;-72
2021/12/30 09:51:36;;;;;;;3.00;1.90;;;;;;;;;;5075741;28;20447;-72
2021/12/30 09:54:03;;;;;;;2.77;2.50;;;;;;;;;;5075717;28;20474;-72
2021/12/30 09:56:31;;;;;;;3.40;2.40;;;;;;;;;;5075738;28;20450;-72
2021/12/30 09:58:58;;;;;;;3.93;3.30;;;;;;;;;;5075953;28;20455;-72
2021/12/30 10:01:25;;;;;;;4.63;3.60;;;;;;;;;;5075527;28;20861;-72
2021/12/30 10:03:56;;;;;;;5.17;2.50;;;;;;;;;;5075513;28;20448;-72
2021/12/30 10:06:25;;;;;;;2.77;2.47;;;;;;;;;;5075580;28;20475;-72
2021/12/30 10:08:56;;;;;;;6.47;4.10;;;;;;;;;;5075568;28;20525;-72
2021/12/30 10:11:23;;;;;;;5.07;3.93;;;;;;;;;;5075337;28;20460;-72
2021/12/30 10:13:51;;;;;;;5.20;3.73;;;;;;;;;;5075364;28;20447;-72
2021/12/30 10:16:19;;;;;;;3.80;2.73;;;;;;;;;;5075278;28;20493;-72
2021/12/30 10:18:47;;;;;;;2.90;2.43;;;;;;;;;;5075324;28;20452;-72
2021/12/30 10:21:15;;;;;;;3.03;1.97;;;;;;;;;;5075319;28;20568;-72
2021/12/30 10:23:47;;;;;;;5.33;1.77;;;;;;;;;;5074976;28;20455;-72
2021/12/30 10:26:15;;;;;;;3.70;2.10;;;;;;;;;;5074951;28;21007;-71
2021/12/30 10:28:43;;;;;;;4.80;2.00;;;;;;;;;;5075179;28;20459;-72
2021/12/30 10:31:19;;;;;;;3.00;2.00;;;;;;;;;;5074678;28;20444;-71
2021/12/30 10:33:56;;;;;;;4.93;3.57;;;;;;;;;;5074889;28;20729;-71
2021/12/30 10:36:24;;;;;;;4.90;3.37;;;;;;;;;;5074922;28;20472;-72
2021/12/30 10:38:53;;;;;;;2.40;2.13;;;;;;;;;;5075000;28;20455;-72
2021/12/30 10:41:22;;;;;;;2.50;1.50;;;;;;;;;;5074868;28;20479;-71
2021/12/30 10:43:53;;;;;;;2.07;1.87;;;;;;;;;;5074657;28;20482;-71
2021/12/30 10:46:21;;;;;;;2.10;1.30;;;;;;;;;;5074824;28;20510;-71
2021/12/30 10:48:53;;;;;;;1.70;1.40;;;;;;;;;;5074859;28;20479;-71
2021/12/30 10:51:22;;;;;;;1.80;1.30;;;;;;;;;;5074678;28;20456;-71
2021/12/30 10:53:50;;;;;;;4.20;2.00;;;;;;;;;;5074508;28;20455;-71
2021/12/30 10:56:35;;;;;;;3.13;2.17;;;;;;;;;;5074739;28;20472;-71
2021/12/30 10:59:18;;;;;;;1.50;1.30;;;;;;;;;;5074806;28;20440;-71
2021/12/30 11:01:45;;;;;;;1.60;1.27;;;;;;;;;;5074425;28;20491;-71
2021/12/30 11:04:13;;;;;;;1.70;1.30;;;;;;;;;;5074383;28;20448;-72
2021/12/30 11:06:40;;;;;;;2.40;1.80;;;;;;;;;;5074269;28;20456;-71
2021/12/30 11:09:09;;;;;;;3.03;1.90;;;;;;;;;;5074480;28;20443;-71
2021/12/30 11:11:37;;;;;;;1.53;1.10;;;;;;;;;;5074050;28;20474;-71
2021/12/30 11:14:06;;;;;;;1.67;1.10;;;;;;;;;;5074283;28;20447;-71
2021/12/30 11:16:37;;;;;;;1.80;1.30;;;;;;;;;;5074161;28;20945;-71
2021/12/30 11:19:08;;;;;;;1.80;1.20;;;;;;;;;;5074358;28;20967;-71
2021/12/30 11:21:36;;;;;;;1.30;1.03;;;;;;;;;;5073459;28;20491;-71
2021/12/30 11:24:04;;;;;;;2.27;1.40;;;;;;;;;;5073434;28;20455;-72
2021/12/30 11:26:32;;;;;;;2.97;1.60;;;;;;;;;;5073852;28;20452;-71
2021/12/30 11:28:59;;;;;;;2.37;1.53;;;;;;;;;;5073629;28;20460;-71
2021/12/30 11:31:27;;;;;;;2.80;2.03;;;;;;;;;;5074034;28;20795;-71
2021/12/30 11:33:55;;;;;;;3.57;2.40;;;;;;;;;;5073783;28;20956;-71
2021/12/30 11:36:22;;;;;;;2.10;1.80;;;;;;;;;;5073430;28;20476;-71
2021/12/30 11:38:51;;;;;;;2.40;1.70;;;;;;;;;;5073788;28;20444;-71
2021/12/30 11:41:19;;;;;;;3.10;2.53;;;;;;;;;;5073601;28;20518;-71
2021/12/30 11:43:46;;;;;;;2.83;1.60;;;;;;;;;;5072979;28;20456;-72
2021/12/30 11:46:32;;;;;;;2.57;1.60;;;;;;;;;;5073650;28;20480;-71
2021/12/30 11:49:01;;;;;;;3.13;2.67;;;;;;;;;;5073708;28;20970;-71
2021/12/30 11:51:41;;;;;;;3.13;1.83;;;;;;;;;;5073514;28;20869;-71
2021/12/30 11:54:27;;;;;;;3.33;2.63;;;;;;;;;;5073348;28;20451;-71
2021/12/30 11:57:09;;;;;;;2.70;1.90;;;;;;;;;;5073466;28;20460;-71
2021/12/30 11:59:39;;;;;;;2.83;2.30;;;;;;;;;;5073228;28;20461;-71
2021/12/30 12:02:21;;;;;;;2.20;1.93;;;;;;;;;;5073283;28;20491;-71
2021/12/30 12:04:50;;;;;;;2.10;1.83;;;;;;;;;;5073112;28;20806;-71
2021/12/30 12:07:17;;;;;;;3.73;2.40;;;;;;;;;;5073961;28;20455;-71
2021/12/30 12:09:44;;;;;;;4.07;2.37;;;;;;;;;;5073940;28;20960;-71
2021/12/30 12:12:13;;;;;;;2.70;2.50;;;;;;;;;;5073576;28;20444;-71
2021/12/30 12:14:44;;;;;;;10.60;5.10;;;;;;;;;;5073310;28;20475;-71
2021/12/30 12:17:17;;;;;;;11.30;6.37;;;;;;;;;;5073418;28;20454;-71
2021/12/30 12:19:44;;;;;;;12.77;8.27;;;;;;;;;;5073066;28;20439;-71
2021/12/30 12:22:29;;;;;;;6.83;5.13;;;;;;;;;;5072971;28;20487;-71
2021/12/30 12:25:09;;;;;;;4.83;2.80;;;;;;;;;;5072617;28;20888;-71
2021/12/30 12:27:36;;;;;;;3.30;2.40;;;;;;;;;;5071262;28;20460;-72
2021/12/30 12:30:05;;;;;;;3.50;2.40;;;;;;;;;;5071147;28;20960;-71
2021/12/30 12:32:38;;;;;;;4.17;2.83;;;;;;;;;;5071060;28;20444;-71
2021/12/30 12:35:07;;;;;;;8.87;4.80;;;;;;;;;;5070718;28;20482;-72
2021/12/30 12:37:54;;;;;;;11.70;5.23;;;;;;;;;;5070586;28;20478;-72
2021/12/30 12:40:30;;;;;;;2.53;1.87;;;;;;;;;;5071039;28;20460;-72
2021/12/30 12:43:02;;;;;;;2.20;2.00;;;;;;;;;;5070972;28;20483;-72
2021/12/30 12:45:30;;;;;;;2.17;1.83;;;;;;;;;;5071453;28;20468;-72
2021/12/30 12:48:15;;;;;;;3.77;2.90;;;;;;;;;;5073002;28;20987;-72
2021/12/30 12:50:43;;;;;;;2.80;2.53;;;;;;;;;;5072838;28;20937;-71
2021/12/30 12:53:20;;;;;;;2.23;1.97;;;;;;;;;;5073079;28;20443;-72
2021/12/30 12:55:49;;;;;;;4.70;1.70;;;;;;;;;;5076821;28;20494;-71
2021/12/30 12:58:18;;;;;;;3.43;2.63;;;;;;;;;;5077016;28;20452;-71
2021/12/30 13:00:46;;;;;;;3.53;2.33;;;;;;;;;;5076847;28;20459;-71
2021/12/30 13:03:15;;;;;;;2.93;2.60;;;;;;;;;;5076889;28;20523;-71
2021/12/30 13:05:52;;;;;;;3.07;2.73;;;;;;;;;;5076553;28;20475;-71
2021/12/30 13:08:20;;;;;;;3.83;3.00;;;;;;;;;;5076805;28;20451;-72
2021/12/30 13:10:49;;;;;;;6.20;2.93;;;;;;;;;;5076837;28;20451;-71
2021/12/30 13:13:28;;;;;;;6.20;3.93;;;;;;;;;;5076598;28;20455;-71
2021/12/30 13:15:55;;;;;;;3.17;2.47;;;;;;;;;;5076632;28;20528;-71
2021/12/30 13:18:22;;;;;;;3.60;2.90;;;;;;;;;;5076514;28;20455;-71
2021/12/30 13:20:50;;;;;;;3.70;2.70;;;;;;;;;;5076401;28;20451;-72
2021/12/30 13:23:26;;;;;;;5.20;2.70;;;;;;;;;;5076304;28;20488;-71
2021/12/30 13:26:05;;;;;;;6.43;3.00;;;;;;;;;;5076637;28;20991;-71
2021/12/30 13:28:32;;;;;;;4.20;2.70;;;;;;;;;;5076266;28;20477;-71
2021/12/30 13:31:06;;;;;;;3.57;2.17;;;;;;;;;;5076291;28;20462;-71
2021/12/30 13:33:34;;;;;;;3.50;2.30;;;;;;;;;;5076068;28;20818;-72
2021/12/30 13:36:12;;;;;;;3.33;2.30;;;;;;;;;;5075994;28;20479;-71
2021/12/30 13:38:39;;;;;;;4.00;2.87;;;;;;;;;;5076039;28;20818;-72
2021/12/30 13:41:14;;;;;;;6.77;4.33;;;;;;;;;;5076157;28;20509;-71
2021/12/30 13:43:41;;;;;;;3.20;2.30;;;;;;;;;;5075895;28;20487;-71
2021/12/30 13:46:09;;;;;;;2.57;1.70;;;;;;;;;;5075978;28;20467;-71
2021/12/30 13:48:37;;;;;;;2.50;2.03;;;;;;;;;;5075926;28;20509;-71
2021/12/30 13:51:06;;;;;;;5.20;3.73;;;;;;;;;;5075893;28;20462;-71
2021/12/30 13:53:35;;;;;;;5.90;3.47;;;;;;;;;;5075650;28;20458;-72
2021/12/30 13:56:03;;;;;;;3.77;3.20;;;;;;;;;;5075739;28;20470;-72
2021/12/30 13:58:34;;;;;;;2.97;2.33;;;;;;;;;;5075694;28;20455;-72
2021/12/30 14:01:02;;;;;;;6.40;2.00;;;;;;;;;;5075914;28;20827;-71
2021/12/30 14:03:30;;;;;;;9.00;3.73;;;;;;;;;;5075565;28;20540;-72
2021/12/30 14:06:04;;;;;;;4.77;3.93;;;;;;;;;;5074655;28;20468;-72
2021/12/30 14:08:32;;;;;;;5.03;4.13;;;;;;;;;;5075617;28;20452;-72
2021/12/30 14:11:01;;;;;;;3.70;2.23;;;;;;;;;;5075398;28;20454;-72
2021/12/30 14:13:38;;;;;;;5.97;3.63;;;;;;;;;;5075314;28;20501;-72
2021/12/30 14:16:06;;;;;;;5.13;3.47;;;;;;;;;;5075530;28;20475;-72
2021/12/30 14:18:34;;;;;;;3.30;2.70;;;;;;;;;;5075758;28;20464;-72
2021/12/30 14:21:01;;;;;;;6.30;4.70;;;;;;;;;;5075416;28;20451;-72
2021/12/30 14:23:30;;;;;;;5.93;3.70;;;;;;;;;;5074979;28;20479;-72
2021/12/30 14:25:57;;;;;;;5.00;3.83;;;;;;;;;;5075260;28;20980;-72
2021/12/30 14:28:26;;;;;;;10.03;4.57;;;;;;;;;;5075076;28;20456;-71
2021/12/30 14:30:55;;;;;;;3.30;2.50;;;;;;;;;;5075335;28;20952;-71
2021/12/30 14:33:25;;;;;;;2.77;2.37;;;;;;;;;;5075184;28;20451;-72
2021/12/30 14:36:07;;;;;;;3.33;1.77;;;;;;;;;;5075132;28;20472;-72
2021/12/30 14:38:34;;;;;;;4.60;2.00;;;;;;;;;;5074967;28;20447;-71
2021/12/30 14:41:08;;;;;;;4.23;2.20;;;;;;;;;;5075286;28;20452;-71
2021/12/30 14:43:35;;;;;;;3.00;2.20;;;;;;;;;;5074742;28;20489;-72
2021/12/30 14:46:14;;;;;;;3.30;2.80;;;;;;;;;;5074790;28;20475;-72
2021/12/30 14:48:41;;;;;;;5.07;4.10;;;;;;;;;;5074874;28;20452;-72
2021/12/30 14:51:18;;;;;;;7.60;3.43;;;;;;;;;;5074788;28;20462;-72